sensor_id;sensor_type;location;lat;lon;timestamp;P1;durP1;ratioP1;P2;durP2;ratioP2
30466;SDS011;17258;52.560;13.046;2023-02-13T00:07:20;2.53;;;2.33;;
30466;SDS011;17258;52.560;13.046;2023-02-13T00:17:20;2.27;;;2.03;;
30466;SDS011;17258;52.560;13.046;2023-02-13T00:27:21;2.83;;;0.90;;
30466;SDS011;17258;52.560;13.046;2023-02-13T00:37:22;2.00;;;1.50;;
30466;SDS011;17258;52.560;13.046;2023-02-13T00:47:23;1.98;;;1.00;;
30466;SDS011;17258;52.560;13.046;2023-02-13T00:57:24;3.43;;;1.30;;
30466;SDS011;17258;52.560;13.046;2023-02-13T01:07:24;0.80;;;0.80;;
30466;SDS011;17258;52.560;13.046;2023-02-13T01:17:25;1.07;;;0.97;;
30466;SDS011;17258;52.560;13.046;2023-02-13T01:27:26;1.37;;;1.23;;
30466;SDS011;17258;52.560;13.046;2023-02-13T01:37:27;2.55;;;1.73;;
30466;SDS011;17258;52.560;13.046;2023-02-13T01:57:40;1.67;;;1.58;;
30466;SDS011;17258;52.560;13.046;2023-02-13T02:07:51;2.00;;;1.75;;
30466;SDS011;17258;52.560;13.046;2023-02-13T02:17:53;3.17;;;2.97;;
30466;SDS011;17258;52.560;13.046;2023-02-13T02:28:09;3.33;;;3.07;;
30466;SDS011;17258;52.560;13.046;2023-02-13T02:38:34;4.03;;;3.65;;
30466;SDS011;17258;52.560;13.046;2023-02-13T02:48:54;4.03;;;3.63;;
30466;SDS011;17258;52.560;13.046;2023-02-13T02:59:21;6.55;;;4.53;;
30466;SDS011;17258;52.560;13.046;2023-02-13T03:09:44;6.07;;;5.55;;
30466;SDS011;17258;52.560;13.046;2023-02-13T03:51:25;5.17;;;4.67;;
30466;SDS011;17258;52.560;13.046;2023-02-13T04:01:48;5.78;;;4.80;;
30466;SDS011;17258;52.560;13.046;2023-02-13T04:22:25;4.93;;;4.45;;
30466;SDS011;17258;52.560;13.046;2023-02-13T04:32:25;4.07;;;3.60;;
30466;SDS011;17258;52.560;13.046;2023-02-13T04:42:26;3.80;;;3.20;;
30466;SDS011;17258;52.560;13.046;2023-02-13T04:52:27;3.67;;;3.30;;
30466;SDS011;17258;52.560;13.046;2023-02-13T05:02:27;4.23;;;3.90;;
30466;SDS011;17258;52.560;13.046;2023-02-13T05:12:28;3.13;;;2.83;;
30466;SDS011;17258;52.560;13.046;2023-02-13T05:22:29;3.03;;;2.70;;
30466;SDS011;17258;52.560;13.046;2023-02-13T05:32:49;3.10;;;2.80;;
30466;SDS011;17258;52.560;13.046;2023-02-13T05:42:50;3.97;;;3.67;;
30466;SDS011;17258;52.560;13.046;2023-02-13T05:52:53;3.85;;;3.17;;
30466;SDS011;17258;52.560;13.046;2023-02-13T06:02:54;3.13;;;2.93;;
30466;SDS011;17258;52.560;13.046;2023-02-13T06:12:55;3.43;;;3.13;;
30466;SDS011;17258;52.560;13.046;2023-02-13T06:22:55;2.40;;;2.30;;
30466;SDS011;17258;52.560;13.046;2023-02-13T06:32:56;3.43;;;2.33;;
30466;SDS011;17258;52.560;13.046;2023-02-13T06:42:57;2.90;;;2.70;;
30466;SDS011;17258;52.560;13.046;2023-02-13T06:52:58;2.93;;;2.73;;
30466;SDS011;17258;52.560;13.046;2023-02-13T07:03:04;2.70;;;2.55;;
30466;SDS011;17258;52.560;13.046;2023-02-13T07:13:05;3.75;;;3.45;;
30466;SDS011;17258;52.560;13.046;2023-02-13T07:23:06;3.95;;;3.60;;
30466;SDS011;17258;52.560;13.046;2023-02-13T07:33:08;3.17;;;2.10;;
30466;SDS011;17258;52.560;13.046;2023-02-13T07:43:08;4.43;;;3.50;;
30466;SDS011;17258;52.560;13.046;2023-02-13T07:53:09;3.00;;;2.70;;
30466;SDS011;17258;52.560;13.046;2023-02-13T08:03:10;4.03;;;3.73;;
30466;SDS011;17258;52.560;13.046;2023-02-13T08:13:10;3.50;;;3.20;;
30466;SDS011;17258;52.560;13.046;2023-02-13T08:23:13;3.45;;;3.15;;
30466;SDS011;17258;52.560;13.046;2023-02-13T08:33:13;5.93;;;3.00;;
30466;SDS011;17258;52.560;13.046;2023-02-13T08:43:14;3.20;;;3.00;;
30466;SDS011;17258;52.560;13.046;2023-02-13T08:53:17;3.80;;;3.50;;
30466;SDS011;17258;52.560;13.046;2023-02-13T09:03:18;6.38;;;3.88;;
30466;SDS011;17258;52.560;13.046;2023-02-13T09:13:18;7.63;;;4.32;;
30466;SDS011;17258;52.560;13.046;2023-02-13T09:23:19;5.43;;;4.73;;
30466;SDS011;17258;52.560;13.046;2023-02-13T09:33:20;6.73;;;5.40;;
30466;SDS011;17258;52.560;13.046;2023-02-13T09:43:28;8.07;;;5.95;;
30466;SDS011;17258;52.560;13.046;2023-02-13T09:53:33;6.18;;;5.38;;
30466;SDS011;17258;52.560;13.046;2023-02-13T10:03:41;6.07;;;5.47;;
30466;SDS011;17258;52.560;13.046;2023-02-13T10:14:04;10.98;;;5.85;;
30466;SDS011;17258;52.560;13.046;2023-02-13T10:24:24;6.05;;;5.28;;
30466;SDS011;17258;52.560;13.046;2023-02-13T10:44:47;7.30;;;6.03;;
30466;SDS011;17258;52.560;13.046;2023-02-13T11:05:37;9.23;;;6.57;;
30466;SDS011;17258;52.560;13.046;2023-02-13T11:15:39;6.70;;;6.03;;
30466;SDS011;17258;52.560;13.046;2023-02-13T11:25:39;8.50;;;7.27;;
30466;SDS011;17258;52.560;13.046;2023-02-13T11:35:40;7.90;;;6.78;;
30466;SDS011;17258;52.560;13.046;2023-02-13T11:45:41;8.77;;;7.97;;
30466;SDS011;17258;52.560;13.046;2023-02-13T11:55:42;9.18;;;7.63;;
30466;SDS011;17258;52.560;13.046;2023-02-13T12:16:12;8.93;;;7.65;;
30466;SDS011;17258;52.560;13.046;2023-02-13T12:26:32;9.43;;;8.50;;
30466;SDS011;17258;52.560;13.046;2023-02-13T12:58:18;7.47;;;6.88;;
30466;SDS011;17258;52.560;13.046;2023-02-13T13:08:52;8.13;;;6.85;;
30466;SDS011;17258;52.560;13.046;2023-02-13T13:19:06;7.97;;;7.10;;
30466;SDS011;17258;52.560;13.046;2023-02-13T13:29:41;7.70;;;6.93;;
30466;SDS011;17258;52.560;13.046;2023-02-13T13:39:47;13.10;;;6.97;;
30466;SDS011;17258;52.560;13.046;2023-02-13T13:50:16;8.30;;;7.50;;
30466;SDS011;17258;52.560;13.046;2023-02-13T14:00:23;7.32;;;6.53;;
30466;SDS011;17258;52.560;13.046;2023-02-13T14:20:33;8.57;;;6.78;;
30466;SDS011;17258;52.560;13.046;2023-02-13T14:30:41;8.50;;;7.65;;
30466;SDS011;17258;52.560;13.046;2023-02-13T14:40:43;7.38;;;6.75;;
30466;SDS011;17258;52.560;13.046;2023-02-13T14:50:52;7.82;;;6.30;;
30466;SDS011;17258;52.560;13.046;2023-02-13T15:01:07;9.05;;;7.85;;
30466;SDS011;17258;52.560;13.046;2023-02-13T15:11:39;7.07;;;6.47;;
30466;SDS011;17258;52.560;13.046;2023-02-13T15:21:46;6.80;;;6.20;;
30466;SDS011;17258;52.560;13.046;2023-02-13T15:31:59;7.95;;;6.55;;
30466;SDS011;17258;52.560;13.046;2023-02-13T15:42:00;9.32;;;7.68;;
30466;SDS011;17258;52.560;13.046;2023-02-13T15:52:04;7.78;;;7.00;;
30466;SDS011;17258;52.560;13.046;2023-02-13T16:02:12;9.65;;;7.22;;
30466;SDS011;17258;52.560;13.046;2023-02-13T16:12:22;9.57;;;7.33;;
30466;SDS011;17258;52.560;13.046;2023-02-13T16:32:36;8.07;;;7.03;;
30466;SDS011;17258;52.560;13.046;2023-02-13T16:42:37;6.05;;;5.22;;
30466;SDS011;17258;52.560;13.046;2023-02-13T16:52:38;7.20;;;6.43;;
30466;SDS011;17258;52.560;13.046;2023-02-13T17:02:39;7.43;;;6.00;;
30466;SDS011;17258;52.560;13.046;2023-02-13T17:12:40;6.53;;;6.00;;
30466;SDS011;17258;52.560;13.046;2023-02-13T17:22:43;8.63;;;7.07;;
30466;SDS011;17258;52.560;13.046;2023-02-13T17:32:47;7.30;;;5.85;;
30466;SDS011;17258;52.560;13.046;2023-02-13T17:42:50;6.03;;;5.38;;
30466;SDS011;17258;52.560;13.046;2023-02-13T17:52:53;8.18;;;6.47;;
30466;SDS011;17258;52.560;13.046;2023-02-13T18:02:54;6.70;;;6.07;;
30466;SDS011;17258;52.560;13.046;2023-02-13T18:12:55;8.85;;;7.32;;
30466;SDS011;17258;52.560;13.046;2023-02-13T18:23:02;7.63;;;5.90;;
30466;SDS011;17258;52.560;13.046;2023-02-13T18:33:05;6.60;;;6.00;;
30466;SDS011;17258;52.560;13.046;2023-02-13T18:43:06;7.38;;;6.57;;
30466;SDS011;17258;52.560;13.046;2023-02-13T18:53:09;9.67;;;7.70;;
30466;SDS011;17258;52.560;13.046;2023-02-13T19:03:10;19.38;;;16.05;;
30466;SDS011;17258;52.560;13.046;2023-02-13T19:13:11;9.83;;;8.83;;
30466;SDS011;17258;52.560;13.046;2023-02-13T19:23:12;9.85;;;8.23;;
30466;SDS011;17258;52.560;13.046;2023-02-13T19:33:12;10.00;;;8.97;;
30466;SDS011;17258;52.560;13.046;2023-02-13T19:43:13;8.73;;;6.93;;
30466;SDS011;17258;52.560;13.046;2023-02-13T19:53:14;13.40;;;7.90;;
30466;SDS011;17258;52.560;13.046;2023-02-13T20:03:15;8.90;;;8.05;;
30466;SDS011;17258;52.560;13.046;2023-02-13T20:13:17;10.20;;;8.45;;
30466;SDS011;17258;52.560;13.046;2023-02-13T20:23:17;9.93;;;8.90;;
30466;SDS011;17258;52.560;13.046;2023-02-13T20:33:18;9.18;;;8.32;;
30466;SDS011;17258;52.560;13.046;2023-02-13T20:43:19;12.77;;;9.73;;
30466;SDS011;17258;52.560;13.046;2023-02-13T20:53:20;10.55;;;9.55;;
30466;SDS011;17258;52.560;13.046;2023-02-13T21:03:20;22.27;;;10.67;;
30466;SDS011;17258;52.560;13.046;2023-02-13T21:13:21;13.60;;;9.80;;
30466;SDS011;17258;52.560;13.046;2023-02-13T21:23:22;12.55;;;10.40;;
30466;SDS011;17258;52.560;13.046;2023-02-13T21:33:23;9.50;;;8.53;;
30466;SDS011;17258;52.560;13.046;2023-02-13T21:43:26;10.95;;;9.82;;
30466;SDS011;17258;52.560;13.046;2023-02-13T21:53:29;12.48;;;8.65;;
30466;SDS011;17258;52.560;13.046;2023-02-13T22:03:30;9.77;;;7.88;;
30466;SDS011;17258;52.560;13.046;2023-02-13T22:13:30;11.07;;;8.73;;
30466;SDS011;17258;52.560;13.046;2023-02-13T22:23:31;13.20;;;10.77;;
30466;SDS011;17258;52.560;13.046;2023-02-13T22:33:33;8.75;;;7.65;;
30466;SDS011;17258;52.560;13.046;2023-02-13T22:43:34;12.48;;;9.43;;
30466;SDS011;17258;52.560;13.046;2023-02-13T22:53:38;11.60;;;8.45;;
30466;SDS011;17258;52.560;13.046;2023-02-13T23:03:39;11.30;;;8.10;;
30466;SDS011;17258;52.560;13.046;2023-02-13T23:13:42;8.63;;;7.63;;
30466;SDS011;17258;52.560;13.046;2023-02-13T23:23:43;9.02;;;8.13;;
30466;SDS011;17258;52.560;13.046;2023-02-13T23:33:44;9.70;;;6.90;;
30466;SDS011;17258;52.560;13.046;2023-02-13T23:43:44;14.87;;;10.10;;
30466;SDS011;17258;52.560;13.046;2023-02-13T23:53:45;9.43;;;8.20;;
